createdAt,value
2023-03-12T00:00:27.939Z,11.73
2023-03-12T00:02:00.103Z,12.55
2023-03-12T00:03:33.158Z,12.80
2023-03-12T00:05:06.267Z,11.13
2023-03-12T00:06:39.327Z,11.05
2023-03-12T00:08:13.232Z,11.52
2023-03-12T00:09:46.588Z,11.93
2023-03-12T00:11:21.347Z,10.57
2023-03-12T00:12:53.560Z,10.32
2023-03-12T00:14:27.971Z,13.90
2023-03-12T00:16:06.043Z,11.50
2023-03-12T00:17:39.215Z,11.50
2023-03-12T00:19:14.642Z,13.43
2023-03-12T00:20:55.256Z,11.98
2023-03-12T00:22:28.381Z,12.05
2023-03-12T00:24:01.447Z,11.45
2023-03-12T00:25:33.528Z,11.50
2023-03-12T00:27:07.636Z,14.13
2023-03-12T00:28:40.853Z,13.60
2023-03-12T00:30:15.784Z,13.45
2023-03-12T00:31:48.977Z,13.25
2023-03-12T00:33:21.112Z,12.38
2023-03-12T00:34:55.065Z,13.18
2023-03-12T00:36:30.170Z,11.82
2023-03-12T00:38:03.256Z,12.07
2023-03-12T00:39:36.691Z,13.13
2023-03-12T00:41:09.750Z,12.50
2023-03-12T00:42:43.036Z,12.75
2023-03-12T00:44:16.090Z,11.57
2023-03-12T00:45:50.513Z,15.45
2023-03-12T00:47:23.659Z,10.10
2023-03-12T00:48:56.768Z,14.02
2023-03-12T00:50:28.861Z,13.10
2023-03-12T00:52:02.109Z,12.52
2023-03-12T00:53:34.161Z,13.13
2023-03-12T00:55:07.717Z,13.98
2023-03-12T00:56:40.806Z,13.32
2023-03-12T00:58:13.963Z,13.73
2023-03-12T00:59:47.149Z,14.40
2023-03-12T01:01:21.724Z,13.27
2023-03-12T01:02:55.808Z,13.38
2023-03-12T01:04:28.899Z,12.65
2023-03-12T01:06:02.011Z,14.02
2023-03-12T01:07:36.342Z,13.07
2023-03-12T01:09:10.343Z,16.25
2023-03-12T01:10:43.168Z,13.52
2023-03-12T01:12:16.277Z,15.02
2023-03-12T01:13:49.779Z,14.35
2023-03-12T01:15:23.361Z,16.75
2023-03-12T01:16:58.292Z,17.35
2023-03-12T01:18:31.440Z,15.43
2023-03-12T01:20:03.828Z,17.00
2023-03-12T01:21:36.900Z,14.65
2023-03-12T01:23:10.882Z,16.35
2023-03-12T01:24:43.951Z,19.05
2023-03-12T01:26:17.061Z,15.07
2023-03-12T01:27:50.153Z,11.60
2023-03-12T01:29:22.510Z,14.25
2023-03-12T01:30:55.550Z,14.40
2023-03-12T01:32:29.992Z,12.48
2023-03-12T01:34:03.086Z,16.52
2023-03-12T01:35:39.395Z,15.90
2023-03-12T01:37:12.645Z,14.68
2023-03-12T01:38:46.633Z,13.20
2023-03-12T01:40:21.933Z,14.98
2023-03-12T01:41:55.157Z,16.20
2023-03-12T01:43:31.993Z,13.23
2023-03-12T01:45:06.241Z,14.55
2023-03-12T01:46:43.159Z,11.95
2023-03-12T01:48:23.538Z,10.30
2023-03-12T01:49:57.218Z,8.10
2023-03-12T01:51:34.420Z,6.70
2023-03-12T01:53:07.574Z,3.97
2023-03-12T01:54:44.010Z,8.30
2023-03-12T01:56:18.280Z,4.32
2023-03-12T01:57:54.532Z,4.13
2023-03-12T01:59:33.998Z,5.28
2023-03-12T02:01:08.713Z,5.18
2023-03-12T02:02:44.187Z,3.67
2023-03-12T02:04:25.180Z,5.90
2023-03-12T02:06:03.636Z,6.47
2023-03-12T02:07:36.734Z,5.13
2023-03-12T02:09:09.099Z,3.95
2023-03-12T02:10:42.207Z,4.60
2023-03-12T02:12:16.500Z,5.30
2023-03-12T02:13:48.590Z,4.32
2023-03-12T02:15:22.083Z,3.65
2023-03-12T02:16:56.531Z,5.75
2023-03-12T02:18:30.993Z,5.15
2023-03-12T02:20:16.194Z,4.35
2023-03-12T02:21:49.312Z,7.88
2023-03-12T02:23:28.981Z,7.78
2023-03-12T02:25:07.334Z,7.28
2023-03-12T02:26:42.277Z,6.10
2023-03-12T02:28:17.992Z,4.25
2023-03-12T02:29:51.728Z,8.05
2023-03-12T02:31:29.757Z,3.97
2023-03-12T02:33:06.957Z,8.07
2023-03-12T02:34:40.127Z,3.40
2023-03-12T02:36:15.768Z,3.55
2023-03-12T02:37:50.465Z,6.15
2023-03-12T02:39:23.757Z,3.65
2023-03-12T02:40:58.217Z,4.07
2023-03-12T02:42:33.782Z,2.70
2023-03-12T02:44:11.222Z,3.15
2023-03-12T02:45:44.867Z,5.80
2023-03-12T02:47:17.966Z,4.90
2023-03-12T02:48:50.499Z,5.20
2023-03-12T02:50:23.699Z,7.13
2023-03-12T02:51:57.687Z,11.43
2023-03-12T02:53:30.092Z,4.18
2023-03-12T02:55:03.714Z,3.97
2023-03-12T02:56:38.529Z,3.60
2023-03-12T02:58:12.981Z,3.70
2023-03-12T02:59:46.186Z,3.78
2023-03-12T03:01:18.854Z,4.47
2023-03-12T03:02:52.284Z,5.60
2023-03-12T03:04:25.845Z,4.85
2023-03-12T03:05:59.226Z,5.97
2023-03-12T03:07:32.482Z,8.15
2023-03-12T03:09:04.611Z,9.07
2023-03-12T03:10:37.867Z,8.20
2023-03-12T03:12:11.125Z,8.05
2023-03-12T03:13:45.735Z,10.05
2023-03-12T03:15:17.902Z,9.57
2023-03-12T03:16:51.082Z,9.73
2023-03-12T03:18:24.165Z,11.35
2023-03-12T03:19:58.078Z,10.95
2023-03-12T03:21:31.537Z,12.13
2023-03-12T03:23:04.710Z,8.63
2023-03-12T03:24:37.803Z,8.98
2023-03-12T03:26:10.065Z,14.55
2023-03-12T03:27:43.127Z,8.88
2023-03-12T03:29:17.896Z,10.93
2023-03-12T03:30:53.261Z,8.27
2023-03-12T03:32:26.594Z,9.45
2023-03-12T03:33:59.699Z,9.82
2023-03-12T03:35:34.549Z,9.90
2023-03-12T03:37:08.007Z,8.02
2023-03-12T03:38:42.377Z,9.05
2023-03-12T03:40:15.548Z,10.00
2023-03-12T03:41:51.617Z,8.88
2023-03-12T03:43:27.008Z,7.68
2023-03-12T03:45:01.720Z,6.97
2023-03-12T03:46:35.562Z,7.57
2023-03-12T03:48:11.857Z,9.73
2023-03-12T03:49:45.176Z,6.55
2023-03-12T03:51:18.782Z,6.07
2023-03-12T03:52:54.955Z,10.63
2023-03-12T03:54:31.137Z,6.80
2023-03-12T03:56:08.372Z,6.90
2023-03-12T03:57:43.684Z,6.45
2023-03-12T03:59:16.757Z,6.40
2023-03-12T04:00:52.094Z,5.93
2023-03-12T04:02:25.258Z,6.85
2023-03-12T04:03:57.576Z,6.55
2023-03-12T04:05:31.019Z,6.72
2023-03-12T04:07:04.721Z,7.20
2023-03-12T04:08:38.233Z,9.30
2023-03-12T04:10:14.478Z,4.97
2023-03-12T04:11:47.835Z,7.22
2023-03-12T04:13:21.923Z,6.63
2023-03-12T04:14:55.003Z,7.65
2023-03-12T04:16:28.780Z,5.47
2023-03-12T04:18:02.034Z,6.03
2023-03-12T04:19:35.889Z,4.30
2023-03-12T04:21:13.133Z,7.10
2023-03-12T04:22:46.813Z,7.63
2023-03-12T04:24:20.311Z,9.38
2023-03-12T04:25:54.652Z,6.10
2023-03-12T04:27:27.997Z,8.77
2023-03-12T04:29:00.911Z,10.10
2023-03-12T04:30:34.436Z,9.82
2023-03-12T04:32:09.500Z,9.82
2023-03-12T04:33:42.968Z,15.23
2023-03-12T04:35:16.850Z,13.32
2023-03-12T04:36:50.232Z,15.68
2023-03-12T04:38:24.844Z,15.52
2023-03-12T04:39:58.416Z,15.38
2023-03-12T04:41:32.264Z,15.77
2023-03-12T04:43:10.400Z,16.77
2023-03-12T04:44:43.538Z,17.67
2023-03-12T04:46:15.871Z,15.50
2023-03-12T04:47:51.411Z,14.55
2023-03-12T04:49:24.603Z,14.35
2023-03-12T04:50:57.862Z,14.07
2023-03-12T04:52:30.959Z,12.50
2023-03-12T04:54:04.461Z,13.52
2023-03-12T04:55:38.136Z,13.65
2023-03-12T04:57:11.622Z,15.30
2023-03-12T04:58:44.694Z,14.93
2023-03-12T05:00:18.705Z,18.08
2023-03-12T05:01:52.639Z,13.32
2023-03-12T05:03:32.697Z,11.45
2023-03-12T05:05:06.667Z,12.07
2023-03-12T05:06:40.123Z,14.77
2023-03-12T05:08:12.200Z,13.27
2023-03-12T05:09:46.365Z,12.35
2023-03-12T05:11:20.962Z,10.40
2023-03-12T05:12:54.070Z,11.02
2023-03-12T05:14:27.544Z,13.48
2023-03-12T05:16:00.742Z,13.52
2023-03-12T05:17:34.453Z,12.75
2023-03-12T05:19:09.018Z,12.00
2023-03-12T05:20:41.519Z,13.55
2023-03-12T05:22:14.570Z,13.38
2023-03-12T05:23:48.427Z,12.70
2023-03-12T05:25:21.974Z,10.50
2023-03-12T05:26:55.138Z,12.23
2023-03-12T05:28:30.793Z,10.25
2023-03-12T05:30:09.008Z,10.65
2023-03-12T05:31:43.425Z,9.68
2023-03-12T05:33:16.926Z,12.77
2023-03-12T05:34:51.421Z,14.35
2023-03-12T05:36:23.550Z,13.18
2023-03-12T05:37:56.620Z,10.55
2023-03-12T05:39:30.176Z,12.98
2023-03-12T05:41:08.080Z,9.93
2023-03-12T05:42:43.149Z,12.10
2023-03-12T05:44:17.250Z,10.00
2023-03-12T05:45:55.191Z,8.65
2023-03-12T05:47:28.939Z,10.07
2023-03-12T05:49:02.004Z,8.90
2023-03-12T05:50:38.656Z,10.55
2023-03-12T05:52:13.542Z,9.52
2023-03-12T05:53:48.722Z,10.40
2023-03-12T05:55:21.943Z,10.45
2023-03-12T05:56:56.077Z,12.05
2023-03-12T05:58:30.790Z,9.07
2023-03-12T06:00:04.783Z,14.45
2023-03-12T06:01:46.409Z,10.82
2023-03-12T06:03:20.267Z,11.35
2023-03-12T06:04:53.534Z,10.68
2023-03-12T06:06:28.126Z,10.30
2023-03-12T06:08:01.292Z,10.35
2023-03-12T06:09:34.621Z,11.95
2023-03-12T06:11:08.042Z,10.60
2023-03-12T06:12:41.498Z,10.55
2023-03-12T06:14:14.801Z,12.15
2023-03-12T06:15:48.151Z,9.65
2023-03-12T06:17:21.297Z,8.65
2023-03-12T06:18:55.463Z,10.35
2023-03-12T06:20:28.529Z,8.57
2023-03-12T06:22:04.450Z,8.52
2023-03-12T06:23:38.841Z,7.65
2023-03-12T06:25:12.628Z,9.60
2023-03-12T06:26:46.940Z,9.45
2023-03-12T06:28:19.991Z,11.00
2023-03-12T06:29:53.103Z,7.97
2023-03-12T06:31:26.470Z,8.30
2023-03-12T06:32:59.712Z,7.90
2023-03-12T06:34:32.814Z,7.82
2023-03-12T06:36:07.956Z,8.27
2023-03-12T06:37:42.560Z,8.23
2023-03-12T06:39:15.707Z,7.25
2023-03-12T06:40:55.574Z,9.05
2023-03-12T06:42:28.707Z,9.15
2023-03-12T06:44:03.687Z,9.90
2023-03-12T06:45:36.803Z,6.63
2023-03-12T06:47:09.901Z,8.83
2023-03-12T06:48:42.440Z,8.33
2023-03-12T06:50:15.527Z,8.80
2023-03-12T06:51:53.466Z,6.67
2023-03-12T06:53:27.891Z,7.35
2023-03-12T06:55:00.942Z,7.32
2023-03-12T06:56:34.319Z,8.90
2023-03-12T06:58:07.541Z,10.20
2023-03-12T06:59:40.793Z,8.10
2023-03-12T07:01:14.818Z,8.10
2023-03-12T07:02:47.903Z,10.07
2023-03-12T07:04:20.407Z,11.10
2023-03-12T07:05:53.587Z,11.20
2023-03-12T07:07:26.701Z,8.87
2023-03-12T07:09:01.121Z,8.37
2023-03-12T07:10:34.194Z,8.40
2023-03-12T07:12:07.997Z,9.23
2023-03-12T07:13:41.205Z,7.00
2023-03-12T07:15:14.596Z,8.23
2023-03-12T07:16:47.734Z,9.77
2023-03-12T07:18:20.808Z,9.73
2023-03-12T07:19:53.932Z,12.97
2023-03-12T07:21:27.109Z,12.60
2023-03-12T07:23:00.599Z,13.18
2023-03-12T07:24:35.079Z,11.63
2023-03-12T07:26:08.173Z,11.67
2023-03-12T07:27:41.202Z,8.18
2023-03-12T07:29:14.387Z,10.38
2023-03-12T07:30:50.531Z,10.70
2023-03-12T07:32:23.751Z,10.70
2023-03-12T07:33:57.784Z,9.15
2023-03-12T07:35:31.472Z,8.70
2023-03-12T07:37:05.068Z,7.32
2023-03-12T07:38:38.621Z,8.40
2023-03-12T07:40:14.143Z,7.57
2023-03-12T07:41:47.242Z,7.63
2023-03-12T07:43:21.654Z,8.23
2023-03-12T07:44:55.879Z,7.67
2023-03-12T07:46:29.014Z,7.10
2023-03-12T07:48:02.195Z,6.90
2023-03-12T07:49:35.300Z,7.40
2023-03-12T07:51:08.443Z,6.40
2023-03-12T07:52:41.762Z,7.23
2023-03-12T07:54:14.840Z,7.67
2023-03-12T07:55:50.255Z,7.73
2023-03-12T07:57:23.754Z,6.67
2023-03-12T07:58:56.937Z,6.07
2023-03-12T08:00:31.323Z,4.77
2023-03-12T08:02:04.529Z,5.37
2023-03-12T08:03:38.993Z,5.83
2023-03-12T08:05:12.459Z,6.20
2023-03-12T08:06:45.937Z,6.70
2023-03-12T08:08:19.043Z,5.87
2023-03-12T08:09:52.318Z,6.13
2023-03-12T08:11:26.794Z,5.73
2023-03-12T08:12:59.915Z,6.87
2023-03-12T08:14:33.006Z,7.97
2023-03-12T08:16:09.229Z,7.83
2023-03-12T08:17:42.851Z,12.43
2023-03-12T08:19:15.934Z,8.50
2023-03-12T08:20:51.505Z,8.73
2023-03-12T08:22:24.642Z,7.30
2023-03-12T08:23:57.811Z,7.23
2023-03-12T08:25:30.867Z,9.13
2023-03-12T08:27:05.485Z,8.77
2023-03-12T08:28:38.623Z,7.80
2023-03-12T08:30:13.634Z,7.10
2023-03-12T08:32:03.469Z,7.53
2023-03-12T08:33:41.113Z,6.63
2023-03-12T08:35:14.278Z,6.63
2023-03-12T08:36:47.297Z,5.53
2023-03-12T08:38:21.179Z,7.43
2023-03-12T08:39:54.533Z,6.07
2023-03-12T08:41:27.664Z,7.03
2023-03-12T08:43:02.091Z,5.33
2023-03-12T08:44:35.925Z,5.57
2023-03-12T08:46:11.110Z,5.50
2023-03-12T08:47:45.408Z,6.57
2023-03-12T08:49:18.795Z,5.40
2023-03-12T08:50:52.312Z,7.67
2023-03-12T08:52:25.650Z,8.30
2023-03-12T08:53:58.747Z,7.97
2023-03-12T08:55:31.792Z,9.47
2023-03-12T08:57:05.003Z,8.17
2023-03-12T08:58:39.522Z,5.30
2023-03-12T09:00:15.999Z,6.40
2023-03-12T09:01:49.373Z,6.27
2023-03-12T09:03:23.596Z,7.13
2023-03-12T09:04:56.707Z,7.40
2023-03-12T09:06:29.779Z,6.63
2023-03-12T09:08:02.797Z,8.90
2023-03-12T09:09:36.317Z,6.10
2023-03-12T09:11:10.648Z,6.63
2023-03-12T09:12:44.749Z,6.07
2023-03-12T09:15:01.873Z,5.23
2023-03-12T09:16:12.233Z,3.40
2023-03-12T09:17:45.777Z,5.50
2023-03-12T09:19:19.053Z,5.17
2023-03-12T09:20:52.281Z,5.07
2023-03-12T09:22:25.623Z,5.17
2023-03-12T09:23:58.756Z,4.07
2023-03-12T09:25:31.840Z,4.83
2023-03-12T09:27:05.267Z,3.47
2023-03-12T09:28:38.406Z,4.77
2023-03-12T09:30:15.805Z,4.53
2023-03-12T09:31:48.966Z,5.80
2023-03-12T09:33:22.009Z,5.43
2023-03-12T09:34:55.431Z,4.33
2023-03-12T09:36:28.626Z,2.63
2023-03-12T09:38:01.993Z,3.83
2023-03-12T09:39:35.021Z,4.80
2023-03-12T09:41:19.392Z,2.97
2023-03-12T09:42:56.517Z,2.33
2023-03-12T09:44:35.606Z,4.67
2023-03-12T09:46:17.195Z,5.10
2023-03-12T09:47:52.501Z,4.30
2023-03-12T09:49:35.215Z,2.43
2023-03-12T09:51:15.340Z,3.63
2023-03-12T09:52:54.710Z,1.77
2023-03-12T09:54:33.431Z,3.20
2023-03-12T09:56:10.200Z,2.50
2023-03-12T09:57:44.393Z,3.47
2023-03-12T09:59:17.510Z,2.43
2023-03-12T10:00:50.549Z,1.67
2023-03-12T10:02:56.004Z,1.77
2023-03-12T10:04:58.615Z,2.47
2023-03-12T10:06:38.750Z,2.83
2023-03-12T10:08:25.088Z,3.33
2023-03-12T10:10:16.266Z,2.20
2023-03-12T10:11:59.229Z,2.30
2023-03-12T10:13:43.273Z,2.80
2023-03-12T10:15:25.836Z,4.90
2023-03-12T10:17:16.202Z,1.43
2023-03-12T10:19:10.392Z,1.60
2023-03-12T10:20:53.079Z,1.23
2023-03-12T10:22:43.930Z,2.03
2023-03-12T10:24:31.650Z,2.43
2023-03-12T10:26:11.045Z,2.70
2023-03-12T10:27:44.657Z,2.20
2023-03-12T10:29:21.424Z,3.87
2023-03-12T10:30:58.934Z,2.17
2023-03-12T10:32:40.084Z,2.70
2023-03-12T10:34:19.928Z,2.83
2023-03-12T10:35:54.622Z,4.53
2023-03-12T10:37:31.411Z,2.73
2023-03-12T10:39:06.223Z,1.97
2023-03-12T10:40:41.281Z,2.20
2023-03-12T10:42:17.945Z,2.73
2023-03-12T10:43:51.094Z,2.70
2023-03-12T10:45:35.294Z,2.83
2023-03-12T10:47:14.636Z,1.87
2023-03-12T10:48:47.808Z,1.90
2023-03-12T10:50:24.473Z,2.10
2023-03-12T10:52:02.731Z,1.73
2023-03-12T10:53:37.336Z,2.03
2023-03-12T10:55:21.654Z,3.50
2023-03-12T10:56:54.708Z,2.93
2023-03-12T10:58:32.203Z,2.53
2023-03-12T11:00:11.952Z,2.77
2023-03-12T11:01:50.687Z,2.33
2023-03-12T11:03:23.819Z,4.57
2023-03-12T11:04:57.519Z,3.00
2023-03-12T11:06:32.015Z,3.00
2023-03-12T11:08:20.051Z,4.40
2023-03-12T11:10:16.856Z,2.33
2023-03-12T11:11:51.311Z,4.10
2023-03-12T11:13:28.620Z,4.83
2023-03-12T11:15:13.693Z,5.07
2023-03-12T11:16:47.237Z,2.27
2023-03-12T11:18:30.060Z,3.20
2023-03-12T11:20:20.322Z,4.23
2023-03-12T11:21:58.778Z,3.43
2023-03-12T11:23:32.256Z,2.10
2023-03-12T11:25:08.444Z,3.93
2023-03-12T11:26:49.280Z,3.80
2023-03-12T11:28:26.582Z,3.47
2023-03-12T11:30:01.446Z,2.97
2023-03-12T11:31:39.961Z,3.20
2023-03-12T11:33:13.528Z,3.53
2023-03-12T11:34:49.800Z,2.90
2023-03-12T11:36:44.047Z,2.43
2023-03-12T11:38:20.700Z,2.87
2023-03-12T11:40:10.023Z,3.30
2023-03-12T11:42:11.955Z,3.07
2023-03-12T11:44:01.121Z,2.40
2023-03-12T11:45:47.670Z,3.47
2023-03-12T11:47:38.136Z,2.80
2023-03-12T11:49:21.240Z,6.67
2023-03-12T11:51:11.179Z,3.97
2023-03-12T11:52:54.802Z,2.73
2023-03-12T11:54:54.340Z,4.47
2023-03-12T11:56:30.984Z,3.00
2023-03-12T11:58:21.192Z,2.53
2023-03-12T12:00:10.878Z,2.50
2023-03-12T12:01:57.330Z,4.13
2023-03-12T12:04:03.160Z,3.17
2023-03-12T12:05:48.450Z,4.17
2023-03-12T12:07:35.419Z,4.50
2023-03-12T12:09:29.792Z,5.23
2023-03-12T12:11:09.621Z,3.17
2023-03-12T12:12:54.746Z,5.13
2023-03-12T12:14:43.288Z,7.27
2023-03-12T12:16:31.046Z,3.47
2023-03-12T12:18:18.342Z,4.17
2023-03-12T12:20:09.196Z,2.87
2023-03-12T12:21:55.060Z,3.13
2023-03-12T12:23:40.308Z,5.17
2023-03-12T12:25:33.694Z,3.43
2023-03-12T12:27:20.051Z,4.23
2023-03-12T12:29:26.464Z,3.47
2023-03-12T12:31:11.510Z,5.57
2023-03-12T12:33:04.777Z,4.97
2023-03-12T12:35:04.730Z,5.90
2023-03-12T12:36:39.219Z,6.90
2023-03-12T12:38:17.475Z,5.30
2023-03-12T12:39:59.340Z,4.00
2023-03-12T12:41:38.252Z,5.30
2023-03-12T12:43:28.184Z,6.20
2023-03-12T12:45:05.539Z,6.80
2023-03-12T12:46:42.926Z,4.83
2023-03-12T12:48:19.918Z,5.97
2023-03-12T12:49:57.859Z,3.60
2023-03-12T12:51:36.026Z,3.80
2023-03-12T12:53:20.554Z,2.97
2023-03-12T12:55:01.303Z,4.43
2023-03-12T12:56:42.222Z,6.20
2023-03-12T12:58:22.048Z,5.93
2023-03-12T13:00:12.779Z,4.30
2023-03-12T13:01:46.201Z,5.37
2023-03-12T13:03:22.053Z,4.13
2023-03-12T13:04:57.630Z,6.23
2023-03-12T13:06:51.010Z,4.37
2023-03-12T13:08:58.027Z,7.50
2023-03-12T13:10:53.016Z,6.13
2023-03-12T13:12:34.740Z,5.77
2023-03-12T13:14:19.634Z,3.67
2023-03-12T13:16:18.439Z,8.37
2023-03-12T13:18:08.965Z,6.57
2023-03-12T13:19:44.990Z,4.80
2023-03-12T13:21:27.464Z,3.87
2023-03-12T13:23:10.624Z,4.40
2023-03-12T13:24:52.699Z,4.00
2023-03-12T13:26:32.829Z,5.03
2023-03-12T13:28:35.559Z,5.73
2023-03-12T13:30:44.296Z,5.37
2023-03-12T13:33:01.650Z,6.07
2023-03-12T13:34:46.861Z,4.43
2023-03-12T13:36:25.362Z,5.17
2023-03-12T13:38:03.719Z,4.47
2023-03-12T13:39:38.236Z,4.13
2023-03-12T13:41:11.498Z,4.27
2023-03-12T13:42:43.764Z,3.90
2023-03-12T13:44:33.048Z,3.70
2023-03-12T13:46:10.325Z,4.80
2023-03-12T13:47:45.045Z,4.83
2023-03-12T13:49:20.950Z,4.07
2023-03-12T13:50:57.866Z,3.27
2023-03-12T13:52:33.573Z,3.70
2023-03-12T13:54:06.879Z,5.47
2023-03-12T13:55:48.101Z,3.10
2023-03-12T13:57:37.318Z,6.73
2023-03-12T13:59:17.888Z,5.83
2023-03-12T14:00:57.275Z,4.63
2023-03-12T14:02:36.599Z,5.33
2023-03-12T14:04:16.250Z,6.67
2023-03-12T14:05:57.653Z,4.43
2023-03-12T14:08:12.548Z,4.60
2023-03-12T14:09:52.301Z,3.70
2023-03-12T14:11:39.571Z,7.50
2023-03-12T14:13:25.126Z,3.37
2023-03-12T14:15:09.496Z,3.73
2023-03-12T14:16:46.005Z,4.93
2023-03-12T14:18:22.151Z,4.70
2023-03-12T14:20:01.408Z,4.20
2023-03-12T14:21:40.121Z,3.23
2023-03-12T14:23:17.960Z,3.30
2023-03-12T14:24:55.627Z,3.77
2023-03-12T14:26:31.750Z,3.27
2023-03-12T14:28:12.477Z,5.43
2023-03-12T14:29:48.920Z,3.67
2023-03-12T14:31:24.844Z,3.57
2023-03-12T14:33:01.541Z,2.17
2023-03-12T14:34:42.403Z,4.77
2023-03-12T14:36:19.234Z,4.53
2023-03-12T14:37:59.698Z,4.47
2023-03-12T14:39:36.048Z,2.37
2023-03-12T14:41:14.696Z,5.73
2023-03-12T14:42:48.029Z,5.77
2023-03-12T14:44:24.281Z,3.63
2023-03-12T14:45:58.118Z,8.97
2023-03-12T14:47:31.767Z,5.67
2023-03-12T14:49:04.945Z,5.13
2023-03-12T14:50:40.442Z,4.93
2023-03-12T14:52:14.076Z,6.07
2023-03-12T14:53:48.581Z,5.37
2023-03-12T14:55:23.977Z,3.90
2023-03-12T14:56:57.215Z,4.83
2023-03-12T14:58:30.792Z,7.60
2023-03-12T15:00:14.221Z,6.13
2023-03-12T15:01:48.541Z,4.80
2023-03-12T15:03:21.831Z,5.83
2023-03-12T15:04:57.107Z,6.27
2023-03-12T15:06:34.246Z,5.47
2023-03-12T15:08:08.910Z,5.33
2023-03-12T15:09:46.757Z,4.67
2023-03-12T15:11:23.972Z,6.20
2023-03-12T15:12:59.509Z,5.23
2023-03-12T15:14:36.319Z,4.93
2023-03-12T15:16:10.039Z,6.50
2023-03-12T15:17:43.251Z,6.07
2023-03-12T15:19:20.964Z,6.80
2023-03-12T15:20:55.215Z,6.03
2023-03-12T15:22:28.810Z,6.07
2023-03-12T15:24:02.476Z,8.23
2023-03-12T15:25:37.259Z,6.07
2023-03-12T15:27:34.490Z,5.97
2023-03-12T15:29:26.822Z,5.83
2023-03-12T15:31:07.469Z,5.00
2023-03-12T15:32:40.820Z,8.13
2023-03-12T15:34:16.329Z,6.13
2023-03-12T15:36:01.843Z,5.40
2023-03-12T15:37:38.280Z,5.50
2023-03-12T15:39:22.629Z,5.73
2023-03-12T15:41:00.590Z,6.87
2023-03-12T15:42:41.365Z,6.27
2023-03-12T15:44:19.942Z,7.60
2023-03-12T15:46:00.051Z,5.20
2023-03-12T15:47:40.368Z,8.83
2023-03-12T15:49:23.595Z,7.20
2023-03-12T15:50:56.757Z,5.67
2023-03-12T15:52:32.996Z,7.90
2023-03-12T15:54:22.592Z,6.73
2023-03-12T15:56:09.465Z,6.27
2023-03-12T15:57:47.155Z,6.43
2023-03-12T15:59:24.906Z,7.43
2023-03-12T16:01:08.233Z,9.33
2023-03-12T16:02:49.258Z,8.47
2023-03-12T16:04:23.915Z,6.03
2023-03-12T16:05:57.758Z,6.53
2023-03-12T16:07:30.862Z,8.43
2023-03-12T16:09:05.293Z,6.80
2023-03-12T16:10:40.533Z,7.77
2023-03-12T16:12:15.366Z,7.43
2023-03-12T16:13:50.390Z,9.93
2023-03-12T16:15:28.795Z,6.40
2023-03-12T16:17:02.894Z,7.30
2023-03-12T16:18:36.064Z,9.03
2023-03-12T16:20:13.641Z,6.90
2023-03-12T16:21:46.806Z,10.00
2023-03-12T16:23:20.380Z,5.77
2023-03-12T16:24:53.694Z,9.67
2023-03-12T16:26:26.758Z,9.13
2023-03-12T16:28:04.247Z,9.73
2023-03-12T16:29:38.859Z,8.13
2023-03-12T16:31:13.614Z,8.17
2023-03-12T16:32:47.112Z,8.03
2023-03-12T16:34:20.205Z,7.30
2023-03-12T16:35:53.715Z,9.23
2023-03-12T16:37:26.835Z,9.60
2023-03-12T16:39:00.200Z,8.97
2023-03-12T16:40:35.715Z,8.77
2023-03-12T16:42:16.549Z,5.47
2023-03-12T16:43:53.757Z,8.77
2023-03-12T16:45:27.802Z,7.70
2023-03-12T16:47:01.824Z,6.17
2023-03-12T16:48:35.099Z,7.73
2023-03-12T16:50:16.257Z,7.67
2023-03-12T16:51:49.406Z,8.50
2023-03-12T16:53:23.235Z,7.13
2023-03-12T16:54:56.739Z,6.97
2023-03-12T16:56:29.830Z,7.03
2023-03-12T16:58:05.193Z,8.00
2023-03-12T16:59:40.025Z,10.07
2023-03-12T17:01:14.703Z,7.00
2023-03-12T17:02:48.331Z,10.00
2023-03-12T17:04:21.556Z,6.97
2023-03-12T17:05:54.779Z,8.23
2023-03-12T17:07:28.022Z,9.00
2023-03-12T17:09:02.188Z,9.90
2023-03-12T17:10:35.461Z,10.00
2023-03-12T17:12:19.536Z,8.63
2023-03-12T17:13:56.432Z,8.47
2023-03-12T17:15:33.303Z,7.40
2023-03-12T17:17:06.398Z,8.77
2023-03-12T17:18:39.633Z,8.60
2023-03-12T17:20:16.289Z,6.77
2023-03-12T17:21:50.464Z,9.30
2023-03-12T17:23:24.617Z,8.60
2023-03-12T17:24:57.700Z,8.80
2023-03-12T17:26:30.835Z,7.53
2023-03-12T17:28:03.080Z,7.23
2023-03-12T17:29:36.240Z,7.53
2023-03-12T17:31:10.936Z,7.23
2023-03-12T17:32:44.113Z,5.80
2023-03-12T17:34:17.716Z,7.80
2023-03-12T17:35:58.823Z,3.53
2023-03-12T17:37:31.965Z,3.50
2023-03-12T17:39:05.660Z,3.97
2023-03-12T17:40:41.380Z,4.17
2023-03-12T17:42:14.655Z,4.80
2023-03-12T17:43:47.706Z,3.67
2023-03-12T17:45:21.076Z,3.23
2023-03-12T17:46:59.795Z,2.00
2023-03-12T17:48:33.153Z,2.90
2023-03-12T17:50:07.877Z,10.10
2023-03-12T17:51:40.972Z,3.90
2023-03-12T17:53:16.131Z,4.53
2023-03-12T17:54:49.202Z,2.67
2023-03-12T17:56:22.596Z,2.37
2023-03-12T17:57:55.765Z,4.17
2023-03-12T17:59:28.952Z,3.27
2023-03-12T18:01:02.583Z,1.93
2023-03-12T18:02:37.029Z,2.10
2023-03-12T18:04:10.115Z,2.60
2023-03-12T18:05:43.432Z,2.03
2023-03-12T18:07:16.554Z,1.80
2023-03-12T18:08:49.638Z,1.90
2023-03-12T18:10:23.089Z,3.17
2023-03-12T18:11:56.655Z,2.73
2023-03-12T18:13:30.091Z,2.07
2023-03-12T18:15:03.350Z,3.77
2023-03-12T18:16:36.465Z,4.40
2023-03-12T18:18:10.863Z,2.17
2023-03-12T18:19:44.150Z,2.23
2023-03-12T18:21:17.170Z,3.17
2023-03-12T18:22:50.340Z,3.70
2023-03-12T18:24:23.504Z,3.23
2023-03-12T18:25:56.643Z,4.27
2023-03-12T18:27:29.660Z,2.97
2023-03-12T18:29:02.850Z,3.30
2023-03-12T18:30:36.219Z,2.43
2023-03-12T18:32:09.975Z,2.20
2023-03-12T18:33:44.377Z,2.30
2023-03-12T18:35:17.542Z,2.50
2023-03-12T18:36:50.689Z,3.93
2023-03-12T18:38:24.429Z,2.10
2023-03-12T18:39:57.468Z,2.07
2023-03-12T18:41:32.765Z,3.60
2023-03-12T18:43:05.857Z,1.53
2023-03-12T18:44:39.141Z,1.90
2023-03-12T18:46:13.029Z,2.63
2023-03-12T18:47:50.225Z,2.93
2023-03-12T18:49:24.660Z,2.63
2023-03-12T18:50:58.251Z,3.07
2023-03-12T18:52:31.479Z,3.30
2023-03-12T18:54:04.735Z,3.30
2023-03-12T18:55:37.774Z,2.63
2023-03-12T18:57:12.405Z,2.77
2023-03-12T18:58:45.501Z,1.70
2023-03-12T19:00:19.918Z,2.23
2023-03-12T19:01:53.047Z,2.37
2023-03-12T19:03:27.541Z,1.87
2023-03-12T19:05:03.989Z,1.60
2023-03-12T19:06:49.792Z,1.80
2023-03-12T19:08:23.639Z,2.23
2023-03-12T19:09:56.777Z,2.07
2023-03-12T19:11:29.976Z,1.70
2023-03-12T19:13:03.097Z,1.90
2023-03-12T19:14:36.171Z,3.03
2023-03-12T19:16:11.579Z,1.50
2023-03-12T19:17:44.629Z,1.60
2023-03-12T19:19:18.106Z,1.53
2023-03-12T19:20:52.507Z,2.97
2023-03-12T19:22:25.639Z,1.77
2023-03-12T19:23:58.748Z,2.03
2023-03-12T19:25:32.083Z,3.07
2023-03-12T19:27:05.237Z,2.27
2023-03-12T19:28:39.054Z,2.00
2023-03-12T19:30:13.713Z,2.37
2023-03-12T19:31:46.914Z,2.33
2023-03-12T19:33:20.186Z,1.80
2023-03-12T19:34:53.316Z,1.77
2023-03-12T19:36:27.724Z,2.40
2023-03-12T19:38:02.022Z,2.23
2023-03-12T19:39:35.283Z,1.77
2023-03-12T19:41:09.702Z,2.33
2023-03-12T19:42:42.797Z,3.10
2023-03-12T19:44:15.869Z,1.77
2023-03-12T19:45:49.149Z,2.27
2023-03-12T19:47:22.424Z,2.73
2023-03-12T19:48:55.524Z,3.67
2023-03-12T19:50:28.565Z,2.57
2023-03-12T19:52:03.423Z,2.53
2023-03-12T19:53:36.671Z,2.00
2023-03-12T19:55:11.863Z,3.03
2023-03-12T19:56:44.966Z,3.53
2023-03-12T19:58:18.517Z,2.33
2023-03-12T19:59:51.545Z,2.20
2023-03-12T20:01:24.847Z,3.07
2023-03-12T20:02:59.522Z,3.27
2023-03-12T20:04:32.786Z,3.13
2023-03-12T20:06:09.289Z,3.63
2023-03-12T20:07:44.270Z,2.67
2023-03-12T20:09:17.306Z,3.20
2023-03-12T20:10:50.574Z,2.90
2023-03-12T20:12:23.818Z,3.77
2023-03-12T20:13:56.873Z,3.07
2023-03-12T20:15:29.993Z,3.37
2023-03-12T20:17:03.234Z,3.73
2023-03-12T20:18:36.416Z,3.33
2023-03-12T20:20:11.137Z,2.83
2023-03-12T20:21:44.259Z,1.93
2023-03-12T20:23:18.963Z,3.97
2023-03-12T20:24:52.002Z,3.13
2023-03-12T20:26:25.262Z,3.57
2023-03-12T20:27:58.514Z,3.13
2023-03-12T20:29:31.845Z,2.63
2023-03-12T20:31:09.616Z,2.87
2023-03-12T20:32:43.694Z,3.10
2023-03-12T20:34:16.945Z,3.07
2023-03-12T20:35:50.574Z,4.57
2023-03-12T20:37:23.815Z,4.37
2023-03-12T20:38:58.226Z,3.23
2023-03-12T20:40:31.313Z,3.30
2023-03-12T20:42:04.597Z,3.97
2023-03-12T20:43:37.692Z,3.47
2023-03-12T20:45:11.464Z,3.00
2023-03-12T20:46:44.569Z,3.27
2023-03-12T20:48:17.813Z,3.53
2023-03-12T20:49:50.841Z,2.17
2023-03-12T20:51:24.715Z,3.37
2023-03-12T20:52:57.763Z,2.70
2023-03-12T20:54:32.861Z,2.53
2023-03-12T20:56:07.156Z,2.50
2023-03-12T20:57:40.265Z,4.03
2023-03-12T20:59:13.764Z,2.57
2023-03-12T21:00:46.845Z,4.13
2023-03-12T21:02:21.022Z,2.87
2023-03-12T21:03:56.638Z,3.90
2023-03-12T21:05:29.694Z,3.23
2023-03-12T21:07:02.780Z,4.27
2023-03-12T21:08:35.855Z,1.97
2023-03-12T21:10:13.242Z,4.03
2023-03-12T21:11:46.309Z,3.00
2023-03-12T21:13:21.155Z,3.33